Time;durP1;ratioP1;P1;durP2;ratioP2;P2;SDS_P1;SDS_P2;PMS_P1;PMS_P2;Temp;Humidity;BMP_temperature;BMP_pressure;BME280_temperature;BME280_humidity;BME280_pressure;Samples;Min_cycle;Max_cycle;Signal;HPM_P1;HPM_P2
2022/08/17 00:01:00;;;;;;;7.40;6.20;;;19.40;99.90;;;;;;10349232;28;20198;-79
2022/08/17 00:06:28;;;;;;;8.32;6.55;;;19.40;99.90;;;;;;10329019;28;20265;-77
2022/08/17 00:11:50;;;;;;;8.00;7.15;;;18.60;99.90;;;;;;10318545;28;20205;-77
2022/08/17 00:17:11;;;;;;;7.28;6.57;;;19.20;99.90;;;;;;10317767;28;20202;-77
2022/08/17 00:22:32;;;;;;;8.98;7.50;;;19.20;99.90;;;;;;10317241;28;20214;-76
2022/08/17 00:27:56;;;;;;;8.52;6.82;;;19.10;99.90;;;;;;10332031;28;20289;-77
2022/08/17 00:33:25;;;;;;;8.82;6.63;;;19.20;99.90;;;;;;10377576;28;20558;-77
2022/08/17 00:38:47;;;;;;;7.68;6.88;;;;;;;;;;10397856;28;20217;-77
2022/08/17 00:44:10;;;;;;;7.43;6.60;;;19.10;99.90;;;;;;10382677;28;20495;-76
2022/08/17 00:49:32;;;;;;;7.85;6.65;;;19.10;99.90;;;;;;10397586;28;20244;-77
2022/08/17 00:54:54;;;;;;;12.63;7.00;;;19.10;99.90;;;;;;10351782;28;20592;-76
2022/08/17 01:00:25;;;;;;;9.52;7.93;;;19.10;99.90;;;;;;10356205;28;20196;-75
2022/08/17 01:05:50;;;;;;;8.85;7.38;;;19.00;99.90;;;;;;10328251;28;20226;-78
2022/08/17 01:11:11;;;;;;;12.45;7.43;;;19.00;99.90;;;;;;10315975;28;20213;-78
2022/08/17 01:16:32;;;;;;;7.78;7.05;;;19.00;99.90;;;;;;10315255;28;20199;-76
2022/08/17 01:22:08;;;;;;;9.07;6.97;;;19.00;99.90;;;;;;10340951;28;20277;-78
2022/08/17 01:27:30;;;;;;;8.15;6.85;;;19.00;99.90;;;;;;10288970;28;20237;-76
2022/08/17 01:32:51;;;;;;;10.05;6.72;;;19.00;99.90;;;;;;10381593;28;20394;-78
2022/08/17 01:38:15;;;;;;;7.85;7.05;;;19.00;99.90;;;;;;10381810;28;20193;-78
2022/08/17 01:43:46;;;;;;;7.90;7.10;;;18.90;99.90;;;;;;10395949;28;20547;-76
2022/08/17 01:49:11;;;;;;;8.10;6.47;;;18.80;99.90;;;;;;10395989;28;20225;-77
2022/08/17 01:54:34;;;;;;;8.35;6.80;;;18.80;99.90;;;;;;10353390;28;20202;-77
2022/08/17 01:59:55;;;;;;;6.60;5.93;;;18.70;99.90;;;;;;10355131;28;20194;-77
2022/08/17 02:05:17;;;;;;;6.82;6.13;;;18.70;99.90;;;;;;10332740;28;20210;-77
2022/08/17 02:10:39;;;;;;;6.85;6.05;;;18.70;99.90;;;;;;10322301;28;20206;-77
2022/08/17 02:16:00;;;;;;;8.15;7.07;;;18.60;99.90;;;;;;10322100;28;20191;-77
2022/08/17 02:21:21;;;;;;;8.50;6.90;;;18.60;99.90;;;;;;10321157;28;20194;-77
2022/08/17 02:26:45;;;;;;;7.75;6.95;;;18.60;99.90;;;;;;10320691;28;20548;-77
2022/08/17 02:32:19;;;;;;;8.82;6.90;;;18.50;99.90;;;;;;10356165;28;20229;-77
2022/08/17 02:37:43;;;;;;;10.15;6.97;;;18.50;99.90;;;;;;10402214;28;20197;-77
2022/08/17 02:43:06;;;;;;;8.10;6.70;;;18.50;99.90;;;;;;10401970;28;20216;-77
2022/08/17 02:48:28;;;;;;;8.40;6.55;;;18.50;99.90;;;;;;10401770;28;20411;-77
2022/08/17 02:53:50;;;;;;;8.77;7.03;;;18.50;99.90;;;;;;10364845;28;20384;-75
2022/08/17 02:59:11;;;;;;;10.40;7.38;;;18.50;99.90;;;;;;10361000;28;20198;-75
2022/08/17 03:04:33;;;;;;;8.70;6.78;;;18.50;99.90;;;;;;10342527;28;20411;-76
2022/08/17 03:09:54;;;;;;;6.53;5.93;;;18.60;99.90;;;;;;10320115;28;20222;-75
2022/08/17 03:15:20;;;;;;;7.22;6.07;;;18.60;99.90;;;;;;10319691;28;20500;-75
2022/08/17 03:20:44;;;;;;;7.45;6.68;;;18.50;99.90;;;;;;10319775;28;20202;-75
2022/08/17 03:26:09;;;;;;;7.13;6.43;;;18.60;99.90;;;;;;10334326;28;20271;-75
2022/08/17 03:31:31;;;;;;;7.35;6.65;;;18.60;99.90;;;;;;10362934;28;20233;-75
2022/08/17 03:36:52;;;;;;;7.22;6.05;;;18.50;99.90;;;;;;10399885;28;20193;-77
2022/08/17 03:42:17;;;;;;;7.10;6.43;;;18.50;99.90;;;;;;10399489;28;20223;-77
2022/08/17 03:58:58;;;;;;;8.05;7.18;;;18.50;99.90;;;;;;10357898;28;20198;-75
2022/08/17 04:04:20;;;;;;;9.35;7.10;;;18.50;99.90;;;;;;10326885;28;20190;-76
2022/08/17 04:09:42;;;;;;;8.35;7.38;;;18.50;99.90;;;;;;10332071;28;20459;-77
2022/08/17 04:15:03;;;;;;;12.05;7.15;;;18.50;99.90;;;;;;10316877;28;20221;-76
2022/08/17 04:20:26;;;;;;;8.07;6.18;;;18.50;99.90;;;;;;10315603;28;20270;-76
2022/08/17 04:25:49;;;;;;;7.45;6.10;;;18.50;99.90;;;;;;10315635;28;20213;-75
2022/08/17 04:31:13;;;;;;;7.45;6.65;;;18.60;99.90;;;;;;10353159;28;20233;-75
2022/08/17 04:36:34;;;;;;;7.57;6.53;;;18.60;99.90;;;;;;10396786;28;20193;-76
2022/08/17 04:42:05;;;;;;;6.93;6.25;;;18.70;99.90;;;;;;10396980;28;20200;-75
2022/08/17 04:47:27;;;;;;;7.15;6.05;;;18.90;99.90;;;;;;10395874;28;20224;-75
2022/08/17 04:52:49;;;;;;;8.13;7.32;;;19.00;99.90;;;;;;10353374;28;20203;-77
2022/08/17 04:58:10;;;;;;;6.25;5.65;;;19.10;99.90;;;;;;10355992;28;20210;-77
2022/08/17 05:03:32;;;;;;;7.35;6.38;;;19.30;99.90;;;;;;10355724;28;20404;-77
2022/08/17 05:08:54;;;;;;;9.00;7.72;;;19.40;99.90;;;;;;10354191;28;20256;-81
2022/08/17 05:14:15;;;;;;;9.70;8.15;;;19.50;99.90;;;;;;10355454;28;20194;-80
2022/08/17 05:19:37;;;;;;;8.65;7.63;;;19.60;99.90;;;;;;10340738;28;20205;-78
2022/08/17 05:24:58;;;;;;;7.43;6.68;;;19.60;99.90;;;;;;10340307;28;20189;-77
2022/08/17 05:30:20;;;;;;;6.80;6.20;;;19.70;99.90;;;;;;10348409;28;20224;-77
2022/08/17 05:35:48;;;;;;;8.80;7.03;;;19.80;99.90;;;;;;10395250;28;20191;-77
2022/08/17 05:41:09;;;;;;;7.55;6.53;;;19.90;99.90;;;;;;10398793;28;20223;-77
2022/08/17 05:46:37;;;;;;;8.98;6.93;;;20.00;99.90;;;;;;10388614;28;20217;-77
2022/08/17 05:52:28;;;;;;;10.88;7.20;;;20.20;99.90;;;;;;10376353;28;20206;-77
2022/08/17 05:58:01;;;;;;;8.75;7.85;;;20.40;99.90;;;;;;10359543;28;20206;-77
2022/08/17 06:03:38;;;;;;;8.48;7.47;;;20.50;99.90;;;;;;10339004;28;20191;-77
2022/08/17 06:09:21;;;;;;;8.20;7.40;;;20.80;99.90;;;;;;10321822;28;20222;-79
2022/08/17 06:15:06;;;;;;;9.02;7.47;;;;;;;;;;10321636;28;20202;-78
2022/08/17 06:20:46;;;;;;;8.07;7.07;;;21.40;99.90;;;;;;10319758;28;20202;-78
2022/08/17 06:26:14;;;;;;;7.65;6.85;;;21.80;99.90;;;;;;10321072;28;20222;-77
2022/08/17 06:31:37;;;;;;;8.75;7.18;;;22.60;59.00;;;;;;10365751;28;20570;-78
2022/08/17 06:37:20;;;;;;;9.98;7.65;;;23.80;1.00;;;;;;10384024;28;20204;-78
2022/08/17 06:42:54;;;;;;;25.63;20.45;;;25.20;1.00;;;;;;10370228;28;20205;-78
2022/08/17 06:48:26;;;;;;;12.32;11.02;;;25.80;1.00;;;;;;10400781;28;20284;-78
2022/08/17 06:54:11;;;;;;;8.95;7.55;;;26.60;1.00;;;;;;10364044;28;20248;-78
2022/08/17 07:00:01;;;;;;;7.85;6.70;;;27.20;45.60;;;;;;10360022;28;20244;-78
2022/08/17 07:05:35;;;;;;;8.32;7.45;;;27.80;1.00;;;;;;10335112;28;20210;-79
2022/08/17 07:11:02;;;;;;;9.32;7.45;;;28.10;99.90;;;;;;10319388;28;20492;-79
2022/08/17 07:16:34;;;;;;;12.60;8.48;;;28.50;99.90;;;;;;10333998;28;20509;-79
2022/08/17 07:22:14;;;;;;;7.65;6.57;;;29.10;1.00;;;;;;10318823;28;20198;-78
2022/08/17 07:27:39;;;;;;;7.47;6.72;;;29.60;1.00;;;;;;10318148;28;20230;-78
2022/08/17 07:33:13;;;;;;;9.30;5.43;;;30.00;99.90;;;;;;10385792;28;20193;-78
2022/08/17 07:38:55;;;;;;;6.57;5.90;;;30.30;99.90;;;;;;10398772;28;20205;-79
2022/08/17 07:44:16;;;;;;;6.05;5.40;;;30.40;99.90;;;;;;10398299;28;20189;-78
2022/08/17 07:49:43;;;;;;;8.25;6.78;;;30.70;1.00;;;;;;10380863;28;20244;-78
2022/08/17 07:55:30;;;;;;;7.90;6.38;;;31.10;1.00;;;;;;10336705;28;20202;-78
2022/08/17 08:01:07;;;;;;;6.78;6.07;;;31.50;99.90;;;;;;10356295;28;20217;-77
2022/08/17 08:06:29;;;;;;;6.35;5.75;;;31.80;1.00;;;;;;10335040;28;20221;-79
2022/08/17 08:11:50;;;;;;;7.50;6.53;;;32.20;1.00;;;;;;10339458;28;20390;-78
2022/08/17 08:17:11;;;;;;;7.60;6.82;;;32.70;1.00;;;;;;10341760;28;20225;-78
2022/08/17 08:22:58;;;;;;;8.15;5.45;;;33.00;99.90;;;;;;10356579;28;20186;-78
2022/08/17 08:28:38;;;;;;;7.78;6.07;;;32.90;1.00;;;;;;10355947;28;20607;-78
2022/08/17 08:34:30;;;;;;;5.63;5.13;;;33.20;1.00;;;;;;10301639;28;20266;-78
2022/08/17 08:40:13;;;;;;;6.07;5.10;;;33.30;1.00;;;;;;10193361;29;20523;-78
2022/08/17 08:46:09;;;;;;;5.82;5.32;;;33.60;1.00;;;;;;10192699;29;20275;-79
2022/08/17 08:51:58;;;;;;;6.28;5.68;;;33.90;1.00;;;;;;10194307;29;20212;-78
2022/08/17 08:57:31;;;;;;;6.05;4.53;;;33.60;99.90;;;;;;10231702;29;20219;-78
2022/08/17 09:03:01;;;;;;;4.65;4.25;;;34.20;99.90;;;;;;10227201;29;20209;-79
2022/08/17 09:08:59;;;;;;;6.35;5.05;;;34.40;99.90;;;;;;10192559;29;20299;-78
2022/08/17 09:14:30;;;;;;;9.48;7.30;;;34.60;99.90;;;;;;10220592;28;20203;-78
2022/08/17 09:20:11;;;;;;;10.30;7.55;;;34.80;94.70;;;;;;10314750;28;20242;-78
2022/08/17 09:25:48;;;;;;;8.23;7.22;;;34.90;1.50;;;;;;10314440;28;20222;-78
2022/08/17 09:31:23;;;;;;;5.85;5.32;;;35.20;1.00;;;;;;10351780;28;20539;-78
2022/08/17 09:37:25;;;;;;;5.00;4.50;;;35.40;1.00;;;;;;10364491;28;20213;-78
2022/08/17 09:42:51;;;;;;;5.35;4.85;;;35.40;1.00;;;;;;10230900;29;20204;-78
2022/08/17 09:48:37;;;;;;;7.45;4.60;;;35.50;1.00;;;;;;10231051;29;20238;-78
2022/08/17 09:54:00;;;;;;;12.00;8.20;;;35.70;1.00;;;;;;10206375;29;20212;-79
2022/08/17 09:59:37;;;;;;;9.35;6.90;;;35.70;1.00;;;;;;10191492;29;20430;-78
2022/08/17 10:05:17;;;;;;;6.80;5.38;;;35.70;1.00;;;;;;10212169;29;20204;-78
2022/08/17 10:10:45;;;;;;;7.45;6.28;;;;;;;;;;10230339;29;20238;-78
2022/08/17 10:16:22;;;;;;;7.47;5.47;;;36.40;1.00;;;;;;10232503;28;20205;-78
2022/08/17 10:27:41;;;;;;;5.43;4.93;;;36.50;1.00;;;;;;10357015;28;20217;-78
2022/08/17 10:33:15;;;;;;;6.60;5.80;;;36.50;1.00;;;;;;10287632;28;20266;-78
2022/08/17 10:38:46;;;;;;;8.43;5.32;;;36.70;1.00;;;;;;10278802;29;20250;-79
2022/08/17 10:44:07;;;;;;;5.25;4.63;;;36.50;1.00;;;;;;10280121;29;20192;-78
2022/08/17 10:49:34;;;;;;;5.40;4.90;;;36.40;1.00;;;;;;10292691;28;20223;-81
2022/08/17 10:55:02;;;;;;;6.68;5.82;;;36.50;1.00;;;;;;10294558;28;20203;-81
2022/08/17 11:01:04;;;;;;;28.98;17.40;;;36.50;1.00;;;;;;10279620;29;20443;-79
2022/08/17 11:06:29;;;;;;;10.60;6.65;;;36.40;1.00;;;;;;10312390;28;20267;-80
2022/08/17 11:11:56;;;;;;;8.27;4.85;;;36.70;1.00;;;;;;10319120;28;20273;-80
2022/08/17 11:17:35;;;;;;;5.55;4.88;;;36.80;1.00;;;;;;10318895;28;20389;-78
2022/08/17 11:23:14;;;;;;;5.60;5.05;;;37.10;1.00;;;;;;10318806;28;20419;-79
2022/08/17 11:28:47;;;;;;;6.07;5.05;;;37.10;1.00;;;;;;10326468;28;20265;-79
2022/08/17 11:34:20;;;;;;;5.65;5.15;;;37.00;1.00;;;;;;10318518;28;20198;-79
2022/08/17 11:39:44;;;;;;;5.80;5.30;;;36.80;1.00;;;;;;10317851;28;20261;-79
2022/08/17 11:51:33;;;;;;;5.68;5.13;;;36.90;1.00;;;;;;10316819;28;20230;-78
2022/08/17 11:57:01;;;;;;;5.65;5.15;;;36.70;1.00;;;;;;10329832;28;20205;-80
2022/08/17 12:02:31;;;;;;;9.38;7.45;;;36.80;1.00;;;;;;10342253;28;20531;-78
2022/08/17 12:08:10;;;;;;;5.03;4.53;;;36.50;1.00;;;;;;10285782;28;20250;-79
2022/08/17 12:13:43;;;;;;;5.25;4.85;;;36.30;1.00;;;;;;10316951;28;20205;-78
2022/08/17 12:19:15;;;;;;;6.50;5.70;;;36.30;1.00;;;;;;10317201;28;20306;-77
2022/08/17 12:24:36;;;;;;;6.30;5.70;;;36.20;1.00;;;;;;10315553;28;20203;-78
2022/08/17 12:30:09;;;;;;;7.57;5.75;;;36.10;1.00;;;;;;10331441;28;20240;-78
2022/08/17 12:35:37;;;;;;;5.63;5.13;;;36.10;1.00;;;;;;10379369;28;20201;-78
2022/08/17 12:41:25;;;;;;;5.90;5.40;;;36.10;1.00;;;;;;10396942;28;20264;-78
2022/08/17 12:46:47;;;;;;;7.05;5.22;;;35.90;1.00;;;;;;10396572;28;20192;-78
2022/08/17 12:52:23;;;;;;;5.20;4.70;;;35.60;1.00;;;;;;10381280;28;20203;-78
2022/08/17 12:57:52;;;;;;;5.53;4.97;;;35.70;1.00;;;;;;10352363;28;20285;-79
2022/08/17 13:03:18;;;;;;;7.53;5.70;;;35.60;1.00;;;;;;10333146;28;20197;-79
2022/08/17 13:08:43;;;;;;;9.48;8.55;;;35.40;1.00;;;;;;10300601;28;20226;-79
2022/08/17 13:14:09;;;;;;;9.93;7.60;;;34.60;1.00;;;;;;10314719;28;20198;-78
2022/08/17 13:19:37;;;;;;;5.50;5.00;;;33.80;1.00;;;;;;10314616;28;20198;-77
2022/08/17 13:25:04;;;;;;;7.30;5.45;;;33.60;1.00;;;;;;10314795;28;20190;-78
2022/08/17 13:30:32;;;;;;;5.70;5.20;;;33.70;1.00;;;;;;10340573;28;20286;-80
2022/08/17 13:36:06;;;;;;;5.03;4.63;;;33.70;1.00;;;;;;10364249;28;20219;-79
2022/08/17 13:41:47;;;;;;;7.40;6.70;;;33.60;1.00;;;;;;10395413;28;20243;-78
2022/08/17 13:47:19;;;;;;;5.97;4.80;;;33.20;1.00;;;;;;10380520;28;20240;-77
2022/08/17 13:52:42;;;;;;;5.05;4.60;;;33.20;1.00;;;;;;10371618;28;20285;-77
2022/08/17 13:58:04;;;;;;;5.45;4.95;;;33.20;1.00;;;;;;10352457;28;20202;-78
2022/08/17 14:03:25;;;;;;;6.80;5.57;;;33.20;1.00;;;;;;10350403;28;20429;-82
2022/08/17 14:08:47;;;;;;;6.25;5.65;;;33.20;1.00;;;;;;10336993;28;20230;-78
2022/08/17 14:14:09;;;;;;;7.38;5.82;;;33.10;1.00;;;;;;10321537;28;20206;-79
2022/08/17 14:19:30;;;;;;;7.53;5.07;;;32.80;1.00;;;;;;10321292;28;20488;-79
2022/08/17 14:24:52;;;;;;;6.70;6.03;;;32.70;1.00;;;;;;10336092;28;20214;-79
2022/08/17 14:30:14;;;;;;;6.38;5.75;;;32.50;1.00;;;;;;10342568;28;20279;-77
2022/08/17 14:35:35;;;;;;;7.35;6.35;;;32.40;1.00;;;;;;10401672;28;20268;-81
2022/08/17 14:40:56;;;;;;;9.40;8.35;;;32.20;1.00;;;;;;10401388;28;20509;-78
2022/08/17 14:46:19;;;;;;;7.32;6.57;;;32.10;1.00;;;;;;10383639;28;20217;-79
2022/08/17 14:51:40;;;;;;;5.82;5.32;;;32.10;1.00;;;;;;10394017;28;20256;-78
2022/08/17 14:57:02;;;;;;;8.15;6.55;;;31.90;97.60;;;;;;10350915;28;20515;-78
2022/08/17 15:02:28;;;;;;;7.28;6.53;;;31.90;99.90;;;;;;10357876;28;20206;-79
2022/08/17 15:07:52;;;;;;;7.30;6.60;;;31.80;1.00;;;;;;10319358;28;20248;-78
2022/08/17 15:13:24;;;;;;;7.38;6.70;;;31.60;1.00;;;;;;10317925;28;20422;-78
2022/08/17 15:18:47;;;;;;;8.98;6.85;;;31.20;81.40;;;;;;10319279;28;20209;-78
2022/08/17 15:24:08;;;;;;;8.55;7.43;;;30.90;1.00;;;;;;10318885;28;20245;-78
2022/08/17 15:29:30;;;;;;;7.50;6.78;;;30.70;1.00;;;;;;10329712;28;20239;-77
2022/08/17 15:34:57;;;;;;;7.22;6.53;;;30.60;1.00;;;;;;10399657;28;20195;-78
2022/08/17 15:40:18;;;;;;;7.47;6.82;;;30.40;1.00;;;;;;10381556;28;20212;-77
2022/08/17 15:45:40;;;;;;;7.30;6.55;;;30.30;1.00;;;;;;10398497;28;20244;-78
2022/08/17 15:51:01;;;;;;;6.63;6.00;;;30.20;44.80;;;;;;10398854;28;20243;-78
2022/08/17 15:56:24;;;;;;;8.27;5.78;;;30.00;99.90;;;;;;10313210;28;20543;-78
2022/08/17 16:01:45;;;;;;;7.25;5.93;;;29.90;99.90;;;;;;10357564;28;20194;-78
2022/08/17 16:07:06;;;;;;;6.32;5.60;;;29.80;1.00;;;;;;10318611;28;20386;-77
2022/08/17 16:12:28;;;;;;;6.18;5.63;;;29.60;1.00;;;;;;10315674;28;20205;-78
2022/08/17 16:17:49;;;;;;;5.90;5.40;;;29.50;99.90;;;;;;10316791;28;20413;-77
2022/08/17 16:23:11;;;;;;;5.95;5.18;;;29.30;1.00;;;;;;10314598;28;20313;-77
2022/08/17 16:28:34;;;;;;;7.78;5.55;;;29.10;99.90;;;;;;10316062;28;20234;-78
2022/08/17 16:33:55;;;;;;;7.70;6.20;;;29.10;99.90;;;;;;10396747;28;20200;-77
2022/08/17 16:39:17;;;;;;;7.63;6.22;;;28.90;99.90;;;;;;10382351;28;20216;-77
2022/08/17 16:44:38;;;;;;;7.53;6.20;;;28.80;99.50;;;;;;10381927;28;20194;-77
2022/08/17 16:50:02;;;;;;;8.15;5.28;;;28.70;99.90;;;;;;10396702;28;20231;-77
2022/08/17 16:55:23;;;;;;;7.45;5.22;;;28.50;99.90;;;;;;10347063;28;20220;-78
2022/08/17 17:00:47;;;;;;;9.50;6.47;;;28.40;1.00;;;;;;10354593;28;20260;-77
2022/08/17 17:06:59;;;;;;;6.88;6.18;;;28.40;1.00;;;;;;10324771;28;20197;-78
2022/08/17 17:12:23;;;;;;;6.07;5.47;;;28.20;1.00;;;;;;10192416;29;20208;-78
2022/08/17 17:17:48;;;;;;;6.00;5.50;;;28.10;1.00;;;;;;10192448;29;20207;-78
2022/08/17 17:23:21;;;;;;;6.57;5.97;;;28.00;1.00;;;;;;10192559;29;20224;-78
2022/08/17 17:29:03;;;;;;;6.05;5.13;;;27.90;1.00;;;;;;10192088;29;20328;-77
2022/08/17 17:34:28;;;;;;;6.28;5.68;;;27.80;1.00;;;;;;10218229;29;20255;-78
2022/08/17 17:39:53;;;;;;;7.38;6.53;;;27.60;1.00;;;;;;10239310;29;20522;-78
2022/08/17 17:45:24;;;;;;;9.52;6.70;;;27.50;1.00;;;;;;10296730;28;20433;-77
2022/08/17 17:51:05;;;;;;;9.25;7.72;;;27.40;99.90;;;;;;10386278;28;20283;-77
2022/08/17 17:56:33;;;;;;;8.65;7.07;;;27.30;1.00;;;;;;10362395;28;20273;-77
2022/08/17 18:08:29;;;;;;;8.15;7.35;;;27.00;1.00;;;;;;10321744;28;20402;-77
2022/08/17 18:14:34;;;;;;;7.63;6.28;;;26.80;1.00;;;;;;10304505;28;20253;-77
2022/08/17 18:19:56;;;;;;;7.47;6.30;;;26.70;99.90;;;;;;10321471;28;20206;-77
2022/08/17 18:25:42;;;;;;;7.20;6.50;;;26.50;1.00;;;;;;10321524;28;20198;-78
2022/08/17 18:31:19;;;;;;;6.47;5.82;;;26.30;1.00;;;;;;10340046;28;20312;-77
2022/08/17 18:36:40;;;;;;;7.35;5.93;;;26.20;1.00;;;;;;10384004;28;20217;-77
2022/08/17 18:42:03;;;;;;;8.18;6.97;;;26.10;5.40;;;;;;10401625;28;20197;-77
2022/08/17 18:47:26;;;;;;;8.38;6.30;;;26.00;99.90;;;;;;10386158;28;20201;-77
2022/08/17 18:52:49;;;;;;;7.97;6.57;;;25.80;20.90;;;;;;10375864;28;20570;-77
2022/08/17 18:58:18;;;;;;;8.00;6.28;;;25.70;99.90;;;;;;10343139;28;20197;-77
2022/08/17 19:03:42;;;;;;;7.25;6.50;;;25.60;99.90;;;;;;10345536;28;20221;-78
2022/08/17 19:09:27;;;;;;;8.68;6.10;;;25.50;99.90;;;;;;10359753;28;20217;-78
2022/08/17 19:14:51;;;;;;;8.48;6.53;;;25.50;99.90;;;;;;10359992;28;20380;-77
2022/08/17 19:20:21;;;;;;;7.00;6.30;;;25.40;99.90;;;;;;10358151;28;20212;-77
2022/08/17 19:25:48;;;;;;;7.65;5.95;;;25.30;99.90;;;;;;10341909;28;20197;-77
2022/08/17 19:31:21;;;;;;;10.52;5.97;;;25.30;99.90;;;;;;10332895;28;20238;-77
2022/08/17 19:36:59;;;;;;;9.30;7.05;;;25.10;99.90;;;;;;10373758;28;20202;-77
2022/08/17 19:42:41;;;;;;;8.00;7.20;;;25.00;1.00;;;;;;10358786;28;20221;-77
2022/08/17 19:48:25;;;;;;;7.95;7.15;;;24.80;1.00;;;;;;10358503;28;20232;-77
2022/08/17 19:53:56;;;;;;;7.10;6.40;;;24.70;1.00;;;;;;10322244;28;20198;-77
2022/08/17 19:59:25;;;;;;;11.15;7.03;;;24.70;1.00;;;;;;10317968;28;20205;-77
2022/08/17 20:04:49;;;;;;;9.43;7.07;;;24.50;1.00;;;;;;10297573;28;20246;-77
2022/08/17 20:10:35;;;;;;;7.57;6.80;;;24.50;1.00;;;;;;10277340;29;20227;-78
2022/08/17 20:15:56;;;;;;;9.05;6.95;;;24.40;1.00;;;;;;10277104;28;20194;-77
2022/08/17 20:21:33;;;;;;;8.38;7.13;;;24.30;1.00;;;;;;10275457;29;20198;-77
2022/08/17 20:27:17;;;;;;;8.52;7.55;;;24.30;1.00;;;;;;10275734;29;20215;-77
2022/08/17 20:32:47;;;;;;;8.40;7.50;;;24.20;1.00;;;;;;10355310;28;20285;-78
2022/08/17 20:38:46;;;;;;;8.68;7.45;;;24.00;99.90;;;;;;10397451;28;20197;-78
2022/08/17 20:44:07;;;;;;;8.55;7.47;;;23.90;99.90;;;;;;10396975;28;20193;-79
2022/08/17 20:49:51;;;;;;;8.07;7.15;;;23.80;1.00;;;;;;10381850;28;20440;-76
2022/08/17 20:55:35;;;;;;;9.45;8.07;;;23.70;1.00;;;;;;10348747;28;20198;-78
2022/08/17 21:00:57;;;;;;;10.13;7.55;;;23.60;1.00;;;;;;10325149;28;20205;-77
2022/08/17 21:06:21;;;;;;;9.45;7.55;;;23.60;1.00;;;;;;10332604;28;20205;-77
2022/08/17 21:11:56;;;;;;;9.60;7.85;;;23.50;1.00;;;;;;10354966;28;20230;-76
2022/08/17 21:17:42;;;;;;;8.60;7.50;;;23.40;1.00;;;;;;10337227;28;20198;-77
2022/08/17 21:23:34;;;;;;;8.35;7.55;;;23.30;1.00;;;;;;10355361;28;20264;-77
2022/08/17 21:29:07;;;;;;;8.88;7.95;;;23.20;1.00;;;;;;10355023;28;20547;-78
2022/08/17 21:34:33;;;;;;;11.18;8.57;;;23.20;1.00;;;;;;10340744;28;20205;-77
2022/08/17 21:40:11;;;;;;;9.25;8.25;;;23.10;1.00;;;;;;10355020;28;20198;-77
2022/08/17 21:45:39;;;;;;;8.65;7.85;;;23.10;1.00;;;;;;10354747;28;20384;-78
2022/08/17 21:51:22;;;;;;;9.68;8.68;;;23.10;1.00;;;;;;10354786;28;20293;-77
2022/08/17 21:56:47;;;;;;;9.68;8.43;;;23.10;1.00;;;;;;10343089;28;20542;-76
2022/08/17 22:02:15;;;;;;;9.70;8.32;;;23.00;1.00;;;;;;10354596;28;20197;-79
2022/08/17 22:07:44;;;;;;;9.45;8.40;;;23.00;1.00;;;;;;10314322;28;20194;-77
2022/08/17 22:13:15;;;;;;;10.50;8.93;;;22.80;1.00;;;;;;10299603;28;20191;-77
2022/08/17 22:18:38;;;;;;;9.82;8.77;;;22.80;1.00;;;;;;10296441;28;20209;-77
2022/08/17 22:24:04;;;;;;;9.68;8.70;;;22.80;1.00;;;;;;10318649;28;20373;-77
2022/08/17 22:29:52;;;;;;;11.68;8.85;;;22.70;1.00;;;;;;10313423;28;20243;-77
2022/08/17 22:35:39;;;;;;;9.68;8.68;;;22.70;1.00;;;;;;10401924;28;20491;-77
2022/08/17 22:41:42;;;;;;;9.93;8.93;;;22.60;1.00;;;;;;10384038;28;20201;-76
2022/08/17 22:47:06;;;;;;;15.43;11.45;;;22.50;1.00;;;;;;10386708;28;20243;-77
2022/08/17 23:04:05;;;;;;;11.30;9.88;;;22.40;1.00;;;;;;10333860;28;20217;-77
2022/08/17 23:09:26;;;;;;;11.68;10.20;;;22.40;1.00;;;;;;10360257;28;20229;-77
2022/08/17 23:14:50;;;;;;;11.30;10.20;;;22.40;1.00;;;;;;10358431;28;20193;-77
2022/08/17 23:20:13;;;;;;;10.48;9.38;;;22.30;1.00;;;;;;10358437;28;20214;-77
2022/08/17 23:25:35;;;;;;;12.75;10.38;;;22.30;1.00;;;;;;10345117;28;20410;-77
2022/08/17 23:30:57;;;;;;;13.02;10.55;;;22.20;1.00;;;;;;10374540;28;20237;-77
2022/08/17 23:36:18;;;;;;;11.05;9.73;;;22.10;1.00;;;;;;10399439;28;20379;-77
2022/08/17 23:41:40;;;;;;;12.43;10.68;;;22.10;1.00;;;;;;10384830;28;20229;-76
2022/08/17 23:47:03;;;;;;;12.13;10.82;;;22.20;1.00;;;;;;10384521;28;20193;-76
2022/08/17 23:52:26;;;;;;;12.35;11.05;;;22.10;1.00;;;;;;10380339;28;20293;-77
2022/08/17 23:57:47;;;;;;;12.02;10.77;;;22.10;1.00;;;;;;10354919;28;20205;-77
